KTOL/TOL METAR and TAF weather

Enter ICAO airport designator
Station Type Date Time Source
KTOL METAR 2022/06/28 15:52 UTC NOAA

KTOL 281552Z VRB03KT 10SM CLR 24/04 A3026 RMK AO2 SLP244 T02390039


Station Type Date Time Source
KTOL Decoded METAR 2022/06/28 15:52 UTC NOAA

TOLEDO EXPRESS AIRPORT, OH, United States (KTOL) 41-35N 083-48W 210M
Jun 28, 2022 - 11:52 AM EDT / 2022.06.28 1552 UTC
Wind: Variable at 3 MPH (3 KT):0
Visibility: 10 mile(s):0
Sky conditions: clear
Temperature: 75.0 F (23.9 C)
Dew Point: 39.0 F (3.9 C)
Relative Humidity: 27%
Pressure (altimeter): 30.26 in. Hg (1024 hPa)
ob: KTOL 281552Z VRB03KT 10SM CLR 24/04 A3026 RMK AO2 SLP244 T02390039
cycle: 16

Station Type Date Time Source
KTOL TAF 2022/06/28 12:27 UTC NOAA

TAF KTOL 281125Z 2812/2912 25005KT P6SM SKC

Example: see airport list